Time,TemperatureF,DewpointF,PressureIn,WindDirection,WindDirectionDegrees,WindSpeedMPH,WindSpeedGustMPH,Humidity,HourlyPrecipIn,Conditions,Clouds,dailyrainin,SoftwareType,DateUTC
2013-01-20 00:03:00,46.2,43.5,30.26,ENE,77,0.0,0.0,90,0.00,,,0.00,meteohub,2013-01-20 06:03:00,
2013-01-20 00:08:00,45.9,43.2,30.26,ENE,77,0.0,0.0,90,0.00,,,0.00,meteohub,2013-01-20 06:08:00,
2013-01-20 00:13:00,45.7,43.0,30.26,ENE,77,0.0,0.0,90,0.00,,,0.00,meteohub,2013-01-20 06:13:00,
2013-01-20 00:18:00,45.1,42.4,30.26,ENE,77,0.0,1.0,90,0.00,,,0.00,meteohub,2013-01-20 06:18:00,
2013-01-20 00:23:00,44.1,41.4,30.25,ENE,77,1.0,1.0,90,0.00,,,0.00,meteohub,2013-01-20 06:23:00,
2013-01-20 00:28:00,44.1,41.5,30.25,ENE,77,0.0,2.0,91,0.00,,,0.00,meteohub,2013-01-20 06:28:00,
2013-01-20 00:33:00,43.9,41.4,30.25,ENE,77,0.0,2.0,91,0.00,,,0.00,meteohub,2013-01-20 06:33:00,
2013-01-20 00:38:00,43.3,40.8,30.25,ENE,77,0.0,2.0,91,0.00,,,0.00,meteohub,2013-01-20 06:38:00,
2013-01-20 00:43:00,43.2,40.6,30.25,ENE,77,0.0,2.0,91,0.00,,,0.00,meteohub,2013-01-20 06:43:00,
2013-01-20 00:48:00,43.2,41.0,30.25,ENE,77,0.0,2.0,92,0.00,,,0.00,meteohub,2013-01-20 06:48:00,
2013-01-20 00:53:00,43.3,41.5,30.25,ENE,77,0.0,0.0,93,0.00,,,0.00,meteohub,2013-01-20 06:53:00,
2013-01-20 00:58:00,43.9,41.9,30.25,ENE,77,0.0,1.0,93,0.00,,,0.00,meteohub,2013-01-20 06:58:00,
2013-01-20 01:03:00,44.2,42.3,30.26,ENE,77,2.0,2.0,93,0.00,,,0.00,meteohub,2013-01-20 07:03:00,
2013-01-20 01:08:00,44.4,42.4,30.26,ENE,77,1.0,2.0,93,0.00,,,0.00,meteohub,2013-01-20 07:08:00,
2013-01-20 01:13:00,44.4,42.4,30.26,ENE,77,1.0,2.0,93,0.00,,,0.00,meteohub,2013-01-20 07:13:00,
2013-01-20 01:18:00,44.4,42.4,30.25,ENE,77,0.0,2.0,93,0.00,,,0.00,meteohub,2013-01-20 07:18:00,
2013-01-20 01:23:00,44.4,42.3,30.25,ENE,77,0.0,2.0,92,0.00,,,0.00,meteohub,2013-01-20 07:23:00,
2013-01-20 01:28:00,44.4,42.3,30.25,ENE,77,0.0,1.0,92,0.00,,,0.00,meteohub,2013-01-20 07:28:00,
2013-01-20 01:33:00,44.2,42.1,30.25,ENE,77,0.0,0.0,92,0.00,,,0.00,meteohub,2013-01-20 07:33:00,
2013-01-20 01:38:00,44.2,42.3,30.26,ENE,77,0.0,0.0,93,0.00,,,0.00,meteohub,2013-01-20 07:38:00,
2013-01-20 01:43:00,44.2,42.3,30.26,ENE,77,0.0,1.0,93,0.00,,,0.00,meteohub,2013-01-20 07:43:00,
2013-01-20 01:49:00,44.2,42.3,30.26,ENE,77,0.0,1.0,93,0.00,,,0.00,meteohub,2013-01-20 07:49:00,
2013-01-20 01:54:00,44.1,42.1,30.25,ENE,77,0.0,1.0,93,0.00,,,0.00,meteohub,2013-01-20 07:54:00,
2013-01-20 01:59:00,44.1,41.9,30.25,ENE,77,0.0,0.0,92,0.00,,,0.00,meteohub,2013-01-20 07:59:00,
2013-01-20 02:04:00,43.9,41.7,30.25,ENE,77,0.0,0.0,92,0.00,,,0.00,meteohub,2013-01-20 08:04:00,
2013-01-20 02:09:00,43.7,41.5,30.25,ENE,77,0.0,0.0,92,0.00,,,0.00,meteohub,2013-01-20 08:09:00,
2013-01-20 02:14:00,43.7,41.7,30.26,ENE,77,0.0,0.0,93,0.00,,,0.00,meteohub,2013-01-20 08:14:00,
2013-01-20 02:19:00,43.5,41.7,30.26,ENE,77,0.0,0.0,93,0.00,,,0.00,meteohub,2013-01-20 08:19:00,
2013-01-20 02:24:00,43.5,41.7,30.26,ENE,77,0.0,0.0,93,0.00,,,0.00,meteohub,2013-01-20 08:24:00,
2013-01-20 02:29:00,43.3,41.5,30.26,ENE,77,0.0,0.0,93,0.00,,,0.00,meteohub,2013-01-20 08:29:00,
2013-01-20 02:34:00,43.3,41.5,30.26,ENE,77,0.0,0.0,93,0.00,,,0.00,meteohub,2013-01-20 08:34:00,
2013-01-20 02:39:00,43.2,41.4,30.26,ENE,77,0.0,0.0,93,0.00,,,0.00,meteohub,2013-01-20 08:39:00,
2013-01-20 02:44:00,43.0,41.2,30.26,ENE,77,0.0,0.0,93,0.00,,,0.00,meteohub,2013-01-20 08:44:00,
2013-01-20 02:49:00,42.8,41.0,30.25,ENE,77,0.0,0.0,93,0.00,,,0.00,meteohub,2013-01-20 08:49:00,
2013-01-20 02:54:00,42.6,40.5,30.26,ENE,77,0.0,0.0,92,0.00,,,0.00,meteohub,2013-01-20 08:54:00,
2013-01-20 02:59:00,42.1,39.9,30.26,ENE,77,0.0,0.0,92,0.00,,,0.00,meteohub,2013-01-20 08:59:00,
2013-01-20 03:04:00,42.1,40.3,30.25,ENE,77,0.0,0.0,93,0.00,,,0.00,meteohub,2013-01-20 09:04:00,
2013-01-20 03:09:00,41.9,40.1,30.25,ENE,77,0.0,0.0,93,0.00,,,0.00,meteohub,2013-01-20 09:09:00,
2013-01-20 03:14:00,41.7,39.9,30.25,ENE,77,0.0,0.0,93,0.00,,,0.00,meteohub,2013-01-20 09:14:00,
2013-01-20 03:19:00,41.7,39.9,30.25,ENE,77,0.0,0.0,93,0.00,,,0.00,meteohub,2013-01-20 09:19:00,
2013-01-20 03:24:00,41.7,39.9,30.25,ENE,77,0.0,0.0,93,0.00,,,0.00,meteohub,2013-01-20 09:24:00,
2013-01-20 03:29:00,41.7,39.9,30.25,ENE,77,0.0,0.0,93,0.00,,,0.00,meteohub,2013-01-20 09:29:00,
2013-01-20 03:34:00,41.7,39.9,30.25,ENE,77,0.0,0.0,93,0.00,,,0.00,meteohub,2013-01-20 09:34:00,
2013-01-20 03:39:00,41.7,40.1,30.25,ENE,77,0.0,0.0,94,0.00,,,0.00,meteohub,2013-01-20 09:39:00,
2013-01-20 03:44:00,41.7,39.9,30.25,ENE,77,0.0,0.0,93,0.00,,,0.00,meteohub,2013-01-20 09:44:00,
2013-01-20 03:49:00,41.5,39.9,30.25,ENE,77,0.0,0.0,94,0.00,,,0.00,meteohub,2013-01-20 09:49:00,
2013-01-20 03:54:00,41.5,39.9,30.25,ENE,77,0.0,0.0,94,0.00,,,0.00,meteohub,2013-01-20 09:54:00,
2013-01-20 03:59:00,41.5,39.9,30.25,ENE,77,0.0,0.0,94,0.00,,,0.00,meteohub,2013-01-20 09:59:00,
2013-01-20 04:04:00,41.5,39.9,30.25,ENE,77,0.0,0.0,94,0.00,,,0.00,meteohub,2013-01-20 10:04:00,
2013-01-20 04:09:00,41.5,39.9,30.25,ENE,77,0.0,0.0,94,0.00,,,0.00,meteohub,2013-01-20 10:09:00,
2013-01-20 04:14:00,41.5,39.9,30.25,ENE,77,0.0,0.0,94,0.00,,,0.00,meteohub,2013-01-20 10:14:00,
2013-01-20 04:19:00,41.5,39.9,30.25,ENE,77,0.0,0.0,94,0.00,,,0.00,meteohub,2013-01-20 10:19:00,
2013-01-20 04:24:00,41.4,39.7,30.25,ENE,77,0.0,0.0,94,0.00,,,0.00,meteohub,2013-01-20 10:24:00,
2013-01-20 04:29:00,41.4,39.7,30.25,ENE,77,0.0,0.0,94,0.00,,,0.00,meteohub,2013-01-20 10:29:00,
2013-01-20 04:34:00,41.4,39.7,30.25,ENE,77,0.0,0.0,94,0.00,,,0.00,meteohub,2013-01-20 10:34:00,
2013-01-20 04:39:00,41.2,39.6,30.25,ENE,77,0.0,0.0,94,0.00,,,0.00,meteohub,2013-01-20 10:39:00,
2013-01-20 04:44:00,41.0,39.4,30.25,ENE,77,0.0,0.0,94,0.00,,,0.00,meteohub,2013-01-20 10:44:00,
2013-01-20 04:49:00,40.8,39.2,30.25,ENE,77,0.0,2.0,94,0.00,,,0.00,meteohub,2013-01-20 10:49:00,
2013-01-20 04:54:00,40.8,39.2,30.25,ENE,77,0.0,2.0,94,0.00,,,0.00,meteohub,2013-01-20 10:54:00,
2013-01-20 04:59:00,40.8,39.2,30.25,ENE,77,0.0,2.0,94,0.00,,,0.00,meteohub,2013-01-20 10:59:00,
2013-01-20 05:04:00,40.8,39.2,30.25,ENE,77,0.0,0.0,94,0.00,,,0.00,meteohub,2013-01-20 11:04:00,
2013-01-20 05:09:00,40.8,39.2,30.25,ENE,77,0.0,0.0,94,0.00,,,0.00,meteohub,2013-01-20 11:09:00,
2013-01-20 05:14:00,40.8,39.2,30.25,ENE,77,0.0,0.0,94,0.00,,,0.00,meteohub,2013-01-20 11:14:00,
2013-01-20 05:19:00,40.8,39.2,30.25,ENE,77,0.0,0.0,94,0.00,,,0.00,meteohub,2013-01-20 11:19:00,
2013-01-20 05:24:00,40.8,39.2,30.25,ENE,77,0.0,0.0,94,0.00,,,0.00,meteohub,2013-01-20 11:24:00,
2013-01-20 05:29:00,40.8,39.2,30.25,ENE,77,0.0,0.0,94,0.00,,,0.00,meteohub,2013-01-20 11:29:00,
2013-01-20 05:34:00,40.6,39.0,30.25,ENE,77,0.0,0.0,94,0.00,,,0.00,meteohub,2013-01-20 11:34:00,
2013-01-20 05:39:00,40.5,38.8,30.25,ENE,77,0.0,0.0,94,0.00,,,0.00,meteohub,2013-01-20 11:39:00,
2013-01-20 05:44:00,40.5,38.8,30.25,ENE,77,0.0,0.0,94,0.00,,,0.00,meteohub,2013-01-20 11:44:00,
2013-01-20 05:49:00,40.5,38.8,30.25,ENE,77,1.0,0.0,94,0.00,,,0.00,meteohub,2013-01-20 11:49:00,
2013-01-20 05:54:00,40.1,38.5,30.24,ENE,77,0.0,2.0,94,0.00,,,0.00,meteohub,2013-01-20 11:54:00,
2013-01-20 05:59:00,39.9,38.3,30.24,ENE,77,0.0,2.0,94,0.00,,,0.00,meteohub,2013-01-20 11:59:00,
2013-01-20 06:04:00,39.7,38.1,30.25,ENE,77,0.0,2.0,94,0.00,,,0.00,meteohub,2013-01-20 12:04:00,
2013-01-20 06:09:00,39.7,38.1,30.25,ENE,77,0.0,1.0,94,0.00,,,0.00,meteohub,2013-01-20 12:09:00,
2013-01-20 06:14:00,39.6,37.9,30.24,ENE,77,0.0,0.0,94,0.00,,,0.00,meteohub,2013-01-20 12:14:00,
2013-01-20 06:19:00,39.2,37.6,30.24,ENE,77,0.0,0.0,94,0.00,,,0.00,meteohub,2013-01-20 12:19:00,
2013-01-20 06:24:00,38.8,37.2,30.24,ENE,77,0.0,0.0,94,0.00,,,0.00,meteohub,2013-01-20 12:24:00,
2013-01-20 06:29:00,38.8,37.2,30.24,ENE,77,0.0,1.0,94,0.00,,,0.00,meteohub,2013-01-20 12:29:00,
2013-01-20 06:34:00,38.7,37.0,30.24,ENE,77,0.0,1.0,94,0.00,,,0.00,meteohub,2013-01-20 12:34:00,
2013-01-20 06:39:00,38.7,37.0,30.24,ENE,77,0.0,1.0,94,0.00,,,0.00,meteohub,2013-01-20 12:39:00,
2013-01-20 06:44:00,38.8,37.2,30.25,ENE,77,0.0,2.0,94,0.00,,,0.00,meteohub,2013-01-20 12:44:00,
2013-01-20 06:49:00,38.8,37.6,30.25,ENE,77,0.0,2.0,95,0.00,,,0.00,meteohub,2013-01-20 12:49:00,
2013-01-20 06:54:00,38.7,37.0,30.25,ENE,77,0.0,2.0,94,0.00,,,0.00,meteohub,2013-01-20 12:54:00,
2013-01-20 06:59:00,38.7,37.0,30.25,ENE,77,0.0,0.0,94,0.00,,,0.00,meteohub,2013-01-20 12:59:00,
2013-01-20 07:04:00,38.7,37.0,30.25,ENE,77,0.0,0.0,94,0.00,,,0.00,meteohub,2013-01-20 13:04:00,
2013-01-20 07:09:00,38.7,37.4,30.25,ENE,77,0.0,0.0,95,0.00,,,0.00,meteohub,2013-01-20 13:09:00,
2013-01-20 07:14:00,38.8,37.6,30.25,ENE,77,0.0,0.0,95,0.00,,,0.00,meteohub,2013-01-20 13:14:00,
2013-01-20 07:19:00,38.7,37.0,30.25,ENE,77,0.0,0.0,94,0.00,,,0.00,meteohub,2013-01-20 13:19:00,
2013-01-20 07:24:00,38.5,36.9,30.25,ENE,77,0.0,1.0,94,0.00,,,0.00,meteohub,2013-01-20 13:24:00,
2013-01-20 07:29:00,37.9,36.3,30.25,ENE,77,0.0,1.0,94,0.00,,,0.00,meteohub,2013-01-20 13:29:00,
2013-01-20 07:35:00,38.1,36.9,30.25,ENE,77,0.0,1.0,95,0.00,,,0.00,meteohub,2013-01-20 13:35:00,
2013-01-20 07:40:00,38.8,37.6,30.25,ENE,77,0.0,1.0,95,0.00,,,0.00,meteohub,2013-01-20 13:40:00,
2013-01-20 07:45:00,39.6,38.3,30.25,ENE,77,0.0,1.0,95,0.00,,,0.00,meteohub,2013-01-20 13:45:00,
2013-01-20 07:50:00,40.3,39.0,30.25,ENE,77,0.0,0.0,95,0.00,,,0.00,meteohub,2013-01-20 13:50:00,
2013-01-20 07:55:00,40.6,39.4,30.25,ENE,77,0.0,0.0,95,0.00,,,0.00,meteohub,2013-01-20 13:55:00,
2013-01-20 08:00:00,41.2,39.9,30.26,ENE,77,0.0,0.0,95,0.00,,,0.00,meteohub,2013-01-20 14:00:00,
2013-01-20 08:05:00,41.9,40.6,30.26,ENE,77,0.0,0.0,95,0.00,,,0.00,meteohub,2013-01-20 14:05:00,
2013-01-20 08:10:00,42.8,41.5,30.26,ENE,77,0.0,0.0,95,0.00,,,0.00,meteohub,2013-01-20 14:10:00,
2013-01-20 08:15:00,43.5,42.3,30.26,ENE,77,1.0,1.0,95,0.00,,,0.00,meteohub,2013-01-20 14:15:00,
2013-01-20 08:20:00,44.4,43.2,30.27,ENE,77,0.0,1.0,95,0.00,,,0.00,meteohub,2013-01-20 14:20:00,
2013-01-20 08:25:00,45.3,44.1,30.27,ENE,77,0.0,1.0,95,0.00,,,0.00,meteohub,2013-01-20 14:25:00,
2013-01-20 08:30:00,46.0,44.6,30.27,ENE,77,1.0,1.0,95,0.00,,,0.00,meteohub,2013-01-20 14:30:00,
2013-01-20 08:35:00,46.8,45.1,30.27,ENE,77,0.0,2.0,94,0.00,,,0.00,meteohub,2013-01-20 14:35:00,
2013-01-20 08:40:00,47.1,45.5,30.27,NNE,32,2.0,4.0,94,0.00,,,0.00,meteohub,2013-01-20 14:40:00,
2013-01-20 08:45:00,47.8,45.9,30.27,NNE,29,2.0,4.0,93,0.00,,,0.00,meteohub,2013-01-20 14:45:00,
2013-01-20 08:50:00,48.2,46.0,30.27,NNE,15,5.0,5.0,92,0.00,,,0.00,meteohub,2013-01-20 14:50:00,
2013-01-20 08:55:00,48.7,46.2,30.27,NNE,15,2.0,5.0,91,0.00,,,0.00,meteohub,2013-01-20 14:55:00,
2013-01-20 09:00:00,49.5,46.4,30.27,NNE,14,4.0,5.0,89,0.00,,,0.00,meteohub,2013-01-20 15:00:00,
2013-01-20 09:05:00,50.0,46.6,30.27,North,355,3.0,5.0,88,0.00,,,0.00,meteohub,2013-01-20 15:05:00,
2013-01-20 09:10:00,50.7,46.8,30.27,North,355,2.0,5.0,86,0.00,,,0.00,meteohub,2013-01-20 15:10:00,
2013-01-20 09:15:00,51.3,46.9,30.27,North,5,5.0,6.0,85,0.00,,,0.00,meteohub,2013-01-20 15:15:00,
2013-01-20 09:20:00,51.8,46.8,30.27,North,11,5.0,6.0,83,0.00,,,0.00,meteohub,2013-01-20 15:20:00,
2013-01-20 09:25:00,52.3,46.8,30.27,NNE,22,3.0,6.0,81,0.00,,,0.00,meteohub,2013-01-20 15:25:00,
2013-01-20 09:30:00,52.9,46.6,30.27,NNE,22,4.0,6.0,79,0.00,,,0.00,meteohub,2013-01-20 15:30:00,
2013-01-20 09:35:00,53.2,46.9,30.27,NE,34,3.0,6.0,79,0.00,,,0.00,meteohub,2013-01-20 15:35:00,
2013-01-20 09:40:00,53.8,47.1,30.27,NNE,30,4.0,5.0,78,0.00,,,0.00,meteohub,2013-01-20 15:40:00,
2013-01-20 09:45:00,54.1,46.8,30.27,NNE,21,3.0,7.0,76,0.00,,,0.00,meteohub,2013-01-20 15:45:00,
2013-01-20 09:50:00,54.3,46.9,30.27,NNW,341,5.0,7.0,76,0.00,,,0.00,meteohub,2013-01-20 15:50:00,
2013-01-20 09:55:00,54.7,46.9,30.27,NNE,17,4.0,7.0,75,0.00,,,0.00,meteohub,2013-01-20 15:55:00,
2013-01-20 10:00:00,55.0,46.9,30.27,NNE,13,3.0,7.0,74,0.00,,,0.00,meteohub,2013-01-20 16:00:00,
2013-01-20 10:05:00,55.2,47.1,30.27,North,5,3.0,7.0,74,0.00,,,0.00,meteohub,2013-01-20 16:05:00,
2013-01-20 10:10:00,55.6,46.4,30.27,North,355,3.0,7.0,71,0.00,,,0.00,meteohub,2013-01-20 16:10:00,
2013-01-20 10:15:00,55.8,46.9,30.27,NNE,12,3.0,7.0,72,0.00,,,0.00,meteohub,2013-01-20 16:15:00,
2013-01-20 10:20:00,56.1,46.8,30.27,NNE,12,2.0,7.0,71,0.00,,,0.00,meteohub,2013-01-20 16:20:00,
2013-01-20 10:25:00,56.7,46.9,30.27,NNW,340,5.0,7.0,70,0.00,,,0.00,meteohub,2013-01-20 16:25:00,
2013-01-20 10:30:00,57.0,46.9,30.27,North,5,5.0,7.0,69,0.00,,,0.00,meteohub,2013-01-20 16:30:00,
2013-01-20 10:35:00,57.6,47.5,30.27,North,10,3.0,7.0,69,0.00,,,0.00,meteohub,2013-01-20 16:35:00,
2013-01-20 10:40:00,57.9,46.9,30.27,NNE,17,3.0,7.0,67,0.00,,,0.00,meteohub,2013-01-20 16:40:00,
2013-01-20 10:46:00,58.5,46.8,30.27,NNE,20,5.0,7.0,65,0.00,,,0.00,meteohub,2013-01-20 16:46:00,
2013-01-20 10:51:00,58.5,46.4,30.27,NNE,20,3.0,9.0,64,0.00,,,0.00,meteohub,2013-01-20 16:51:00,
2013-01-20 10:56:00,58.6,46.0,30.27,North,355,5.0,9.0,63,0.00,,,0.00,meteohub,2013-01-20 16:56:00,
2013-01-20 11:01:00,58.8,45.9,30.27,North,5,4.0,9.0,62,0.00,,,0.00,meteohub,2013-01-20 17:01:00,
2013-01-20 11:06:00,59.2,46.2,30.27,NNE,29,2.0,9.0,62,0.00,,,0.00,meteohub,2013-01-20 17:06:00,
2013-01-20 11:11:00,59.5,45.1,30.26,North,355,4.0,9.0,59,0.00,,,0.00,meteohub,2013-01-20 17:11:00,
2013-01-20 11:16:00,59.7,45.0,30.26,NNE,23,6.0,8.0,58,0.00,,,0.00,meteohub,2013-01-20 17:16:00,
2013-01-20 11:21:00,59.9,44.2,30.25,NNE,15,4.0,8.0,56,0.00,,,0.00,meteohub,2013-01-20 17:21:00,
2013-01-20 11:26:00,60.3,43.5,30.25,NNW,337,0.0,8.0,54,0.00,,,0.00,meteohub,2013-01-20 17:26:00,
2013-01-20 11:31:00,60.6,43.9,30.25,NNE,21,5.0,8.0,54,0.00,,,0.00,meteohub,2013-01-20 17:31:00,
2013-01-20 11:36:00,60.6,43.9,30.25,North,5,1.0,8.0,54,0.00,,,0.00,meteohub,2013-01-20 17:36:00,
2013-01-20 11:41:00,61.0,44.8,30.24,North,350,6.0,8.0,55,0.00,,,0.00,meteohub,2013-01-20 17:41:00,
2013-01-20 11:46:00,61.5,44.2,30.24,NE,51,7.0,7.0,53,0.00,,,0.00,meteohub,2013-01-20 17:46:00,
2013-01-20 11:51:00,61.5,42.6,30.23,NNW,340,5.0,8.0,50,0.00,,,0.00,meteohub,2013-01-20 17:51:00,
2013-01-20 11:56:00,61.5,43.2,30.23,NE,37,4.0,8.0,51,0.00,,,0.00,meteohub,2013-01-20 17:56:00,
2013-01-20 12:01:00,61.9,42.4,30.22,NNE,28,6.0,8.0,49,0.00,,,0.00,meteohub,2013-01-20 18:01:00,
2013-01-20 12:06:00,61.9,42.4,30.22,NNE,19,5.0,9.0,49,0.00,,,0.00,meteohub,2013-01-20 18:06:00,
2013-01-20 12:11:00,62.1,40.5,30.22,NNE,32,7.0,9.0,45,0.00,,,0.00,meteohub,2013-01-20 18:11:00,
2013-01-20 12:16:00,62.1,38.7,30.21,NE,41,3.0,10.0,42,0.00,,,0.00,meteohub,2013-01-20 18:16:00,
2013-01-20 12:21:00,62.2,40.1,30.20,NNE,14,3.0,10.0,44,0.00,,,0.00,meteohub,2013-01-20 18:21:00,
2013-01-20 12:26:00,62.4,39.6,30.20,North,5,5.0,10.0,43,0.00,,,0.00,meteohub,2013-01-20 18:26:00,
2013-01-20 12:31:00,62.8,39.9,30.19,North,5,3.0,8.0,43,0.00,,,0.00,meteohub,2013-01-20 18:31:00,
2013-01-20 12:36:00,62.8,39.9,30.19,North,11,5.0,8.0,43,0.00,,,0.00,meteohub,2013-01-20 18:36:00,
2013-01-20 12:41:00,63.0,40.1,30.19,NNW,346,3.0,7.0,43,0.00,,,0.00,meteohub,2013-01-20 18:41:00,
2013-01-20 12:46:00,63.1,40.8,30.19,NNW,346,1.0,8.0,44,0.00,,,0.00,meteohub,2013-01-20 18:46:00,
2013-01-20 12:51:00,64.8,40.5,30.18,North,5,4.0,8.0,41,0.00,,,0.00,meteohub,2013-01-20 18:51:00,
2013-01-20 12:56:00,64.4,40.8,30.18,NNE,15,0.0,8.0,42,0.00,,,0.00,meteohub,2013-01-20 18:56:00,
2013-01-20 13:01:00,64.2,40.1,30.18,NE,40,3.0,8.0,41,0.00,,,0.00,meteohub,2013-01-20 19:01:00,
2013-01-20 13:06:00,64.0,39.9,30.17,NNE,19,0.0,8.0,41,0.00,,,0.00,meteohub,2013-01-20 19:06:00,
2013-01-20 13:11:00,64.0,40.5,30.17,SE,132,2.0,8.0,42,0.00,,,0.00,meteohub,2013-01-20 19:11:00,
2013-01-20 13:16:00,65.5,40.5,30.17,SE,132,0.0,6.0,40,0.00,,,0.00,meteohub,2013-01-20 19:16:00,
2013-01-20 13:21:00,66.0,41.0,30.17,NNE,22,1.0,6.0,40,0.00,,,0.00,meteohub,2013-01-20 19:21:00,
2013-01-20 13:26:00,65.5,40.5,30.16,NNE,12,5.0,5.0,40,0.00,,,0.00,meteohub,2013-01-20 19:26:00,
2013-01-20 13:31:00,64.9,39.4,30.16,SW,229,3.0,8.0,39,0.00,,,0.00,meteohub,2013-01-20 19:31:00,
2013-01-20 13:36:00,66.0,39.0,30.16,WSW,240,1.0,8.0,37,0.00,,,0.00,meteohub,2013-01-20 19:36:00,
2013-01-20 13:41:00,65.8,39.6,30.16,NNW,332,2.0,8.0,38,0.00,,,0.00,meteohub,2013-01-20 19:41:00,
2013-01-20 13:46:00,64.9,40.1,30.16,North,5,2.0,8.0,40,0.00,,,0.00,meteohub,2013-01-20 19:46:00,
2013-01-20 13:51:00,65.5,39.9,30.16,North,5,1.0,8.0,39,0.00,,,0.00,meteohub,2013-01-20 19:51:00,
2013-01-20 13:56:00,66.9,39.7,30.16,South,169,2.0,6.0,37,0.00,,,0.00,meteohub,2013-01-20 19:56:00,
2013-01-20 14:01:00,67.6,39.7,30.15,SW,236,3.0,5.0,36,0.00,,,0.00,meteohub,2013-01-20 20:01:00,
2013-01-20 14:06:00,67.6,39.7,30.15,North,5,0.0,6.0,36,0.00,,,0.00,meteohub,2013-01-20 20:06:00,
2013-01-20 14:11:00,68.0,40.1,30.15,SW,234,1.0,6.0,36,0.00,,,0.00,meteohub,2013-01-20 20:11:00,
2013-01-20 14:16:00,68.2,39.6,30.15,NNW,348,1.0,6.0,35,0.00,,,0.00,meteohub,2013-01-20 20:16:00,
2013-01-20 14:21:00,67.3,38.7,30.15,NNW,346,2.0,5.0,35,0.00,,,0.00,meteohub,2013-01-20 20:21:00,
2013-01-20 14:26:00,66.6,39.6,30.14,WSW,254,1.0,5.0,37,0.00,,,0.00,meteohub,2013-01-20 20:26:00,
2013-01-20 14:31:00,66.6,39.6,30.14,NE,49,5.0,5.0,37,0.00,,,0.00,meteohub,2013-01-20 20:31:00,
2013-01-20 14:36:00,65.8,39.6,30.14,NNE,32,1.0,6.0,38,0.00,,,0.00,meteohub,2013-01-20 20:36:00,
2013-01-20 14:41:00,65.7,39.4,30.14,NNW,338,2.0,7.0,38,0.00,,,0.00,meteohub,2013-01-20 20:41:00,
2013-01-20 14:46:00,66.6,40.1,30.14,NE,53,2.0,7.0,38,0.00,,,0.00,meteohub,2013-01-20 20:46:00,
2013-01-20 14:52:00,66.7,39.6,30.14,NNE,31,1.0,7.0,37,0.00,,,0.00,meteohub,2013-01-20 20:52:00,
2013-01-20 14:57:00,66.6,40.1,30.14,NNW,338,3.0,5.0,38,0.00,,,0.00,meteohub,2013-01-20 20:57:00,
2013-01-20 15:02:00,65.8,39.6,30.14,NNW,341,0.0,5.0,38,0.00,,,0.00,meteohub,2013-01-20 21:02:00,
2013-01-20 15:07:00,66.0,39.7,30.14,WSW,243,3.0,7.0,38,0.00,,,0.00,meteohub,2013-01-20 21:07:00,
2013-01-20 15:12:00,67.3,40.1,30.13,WSW,245,2.0,7.0,37,0.00,,,0.00,meteohub,2013-01-20 21:12:00,
2013-01-20 15:17:00,68.0,40.1,30.13,WSW,245,0.0,5.0,36,0.00,,,0.00,meteohub,2013-01-20 21:17:00,
2013-01-20 15:22:00,68.4,40.3,30.13,WSW,242,4.0,5.0,36,0.00,,,0.00,meteohub,2013-01-20 21:22:00,
2013-01-20 15:27:00,68.4,41.0,30.14,WSW,242,0.0,5.0,37,0.00,,,0.00,meteohub,2013-01-20 21:27:00,
2013-01-20 15:32:00,67.8,39.2,30.13,WSW,242,0.0,5.0,35,0.00,,,0.00,meteohub,2013-01-20 21:32:00,
2013-01-20 15:37:00,66.9,39.0,30.13,North,355,0.0,4.0,36,0.00,,,0.00,meteohub,2013-01-20 21:37:00,
2013-01-20 15:42:00,66.9,37.6,30.13,NW,304,2.0,5.0,34,0.00,,,0.00,meteohub,2013-01-20 21:42:00,
2013-01-20 15:47:00,67.1,39.2,30.13,NNW,344,3.0,5.0,36,0.00,,,0.00,meteohub,2013-01-20 21:47:00,
2013-01-20 15:52:00,66.4,37.9,30.13,NNE,15,1.0,5.0,35,0.00,,,0.00,meteohub,2013-01-20 21:52:00,
2013-01-20 15:58:00,66.4,38.7,30.13,SW,235,1.0,5.0,36,0.00,,,0.00,meteohub,2013-01-20 21:58:00,
2013-01-20 16:03:00,66.7,39.0,30.13,SW,236,0.0,5.0,36,0.00,,,0.00,meteohub,2013-01-20 22:03:00,
2013-01-20 16:08:00,66.7,39.0,30.13,SW,236,1.0,5.0,36,0.00,,,0.00,meteohub,2013-01-20 22:08:00,
2013-01-20 16:13:00,66.6,38.8,30.13,SW,236,0.0,5.0,36,0.00,,,0.00,meteohub,2013-01-20 22:13:00,
2013-01-20 16:18:00,66.4,37.9,30.13,SW,236,1.0,4.0,35,0.00,,,0.00,meteohub,2013-01-20 22:18:00,
2013-01-20 16:23:00,65.8,37.4,30.13,North,5,1.0,4.0,35,0.00,,,0.00,meteohub,2013-01-20 22:23:00,
2013-01-20 16:28:00,65.5,37.0,30.13,North,5,1.0,4.0,35,0.00,,,0.00,meteohub,2013-01-20 22:28:00,
2013-01-20 16:33:00,65.1,36.1,30.13,WNW,284,0.0,4.0,34,0.00,,,0.00,meteohub,2013-01-20 22:33:00,
2013-01-20 16:38:00,64.8,37.2,30.13,NW,313,0.0,4.0,36,0.00,,,0.00,meteohub,2013-01-20 22:38:00,
2013-01-20 16:43:00,64.9,38.1,30.13,NW,313,1.0,3.0,37,0.00,,,0.00,meteohub,2013-01-20 22:43:00,
2013-01-20 16:48:00,64.9,38.7,30.13,SW,227,0.0,3.0,38,0.00,,,0.00,meteohub,2013-01-20 22:48:00,
2013-01-20 16:53:00,64.8,37.9,30.13,SW,227,0.0,3.0,37,0.00,,,0.00,meteohub,2013-01-20 22:53:00,
2013-01-20 16:58:00,64.2,38.1,30.13,SW,227,1.0,3.0,38,0.00,,,0.00,meteohub,2013-01-20 22:58:00,
2013-01-20 17:03:00,63.9,37.8,30.13,SW,227,1.0,3.0,38,0.00,,,0.00,meteohub,2013-01-20 23:03:00,
2013-01-20 17:08:00,63.7,38.3,30.13,SW,227,0.0,3.0,39,0.00,,,0.00,meteohub,2013-01-20 23:08:00,
2013-01-20 17:13:00,63.3,38.7,30.13,SW,227,0.0,3.0,40,0.00,,,0.00,meteohub,2013-01-20 23:13:00,
2013-01-20 17:18:00,63.1,38.5,30.13,SW,227,0.0,2.0,40,0.00,,,0.00,meteohub,2013-01-20 23:18:00,
2013-01-20 17:23:00,62.8,38.7,30.13,SW,227,0.0,0.0,41,0.00,,,0.00,meteohub,2013-01-20 23:23:00,
2013-01-20 17:28:00,62.4,39.0,30.13,SW,227,0.0,0.0,42,0.00,,,0.00,meteohub,2013-01-20 23:28:00,
2013-01-20 17:33:00,62.1,38.7,30.13,SW,227,0.0,0.0,42,0.00,,,0.00,meteohub,2013-01-20 23:33:00,
2013-01-20 17:38:00,61.5,38.8,30.13,SW,227,0.0,0.0,43,0.00,,,0.00,meteohub,2013-01-20 23:38:00,
2013-01-20 17:43:00,61.2,39.0,30.14,SW,227,0.0,0.0,44,0.00,,,0.00,meteohub,2013-01-20 23:43:00,
2013-01-20 17:48:00,61.0,38.8,30.14,SW,227,0.0,0.0,44,0.00,,,0.00,meteohub,2013-01-20 23:48:00,
2013-01-20 17:53:00,60.6,39.2,30.14,SW,227,0.0,0.0,45,0.00,,,0.00,meteohub,2013-01-20 23:53:00,
2013-01-20 17:58:00,60.3,39.4,30.14,SW,227,0.0,0.0,46,0.00,,,0.00,meteohub,2013-01-20 23:58:00,
2013-01-20 18:03:00,60.1,39.7,30.14,SW,227,0.0,0.0,47,0.00,,,0.00,meteohub,2013-01-21 00:03:00,
2013-01-20 18:08:00,59.7,39.4,30.14,SW,227,0.0,0.0,47,0.00,,,0.00,meteohub,2013-01-21 00:08:00,
2013-01-20 18:13:00,59.4,39.7,30.14,SW,227,1.0,0.0,48,0.00,,,0.00,meteohub,2013-01-21 00:13:00,
2013-01-20 18:18:00,59.0,40.5,30.15,SW,227,0.0,0.0,50,0.00,,,0.00,meteohub,2013-01-21 00:18:00,
2013-01-20 18:23:00,58.6,40.1,30.14,SW,227,0.0,1.0,50,0.00,,,0.00,meteohub,2013-01-21 00:23:00,
2013-01-20 18:28:00,58.3,40.8,30.15,SW,227,0.0,1.0,52,0.00,,,0.00,meteohub,2013-01-21 00:28:00,
2013-01-20 18:33:00,57.7,40.6,30.15,SW,227,0.0,1.0,53,0.00,,,0.00,meteohub,2013-01-21 00:33:00,
2013-01-20 18:38:00,57.4,40.5,30.15,SW,227,0.0,0.0,53,0.00,,,0.00,meteohub,2013-01-21 00:38:00,
2013-01-20 18:43:00,57.2,39.7,30.15,SW,227,0.0,0.0,52,0.00,,,0.00,meteohub,2013-01-21 00:43:00,
2013-01-20 18:48:00,57.0,40.1,30.15,SW,227,0.0,0.0,53,0.00,,,0.00,meteohub,2013-01-21 00:48:00,
2013-01-20 18:53:00,57.0,40.5,30.15,SW,227,0.0,0.0,54,0.00,,,0.00,meteohub,2013-01-21 00:53:00,
2013-01-20 18:58:00,56.7,40.3,30.15,SW,227,0.0,0.0,54,0.00,,,0.00,meteohub,2013-01-21 00:58:00,
2013-01-20 19:03:00,56.5,40.5,30.15,SW,227,0.0,0.0,55,0.00,,,0.00,meteohub,2013-01-21 01:03:00,
2013-01-20 19:08:00,56.1,40.1,30.15,SW,227,0.0,0.0,55,0.00,,,0.00,meteohub,2013-01-21 01:08:00,
2013-01-20 19:13:00,56.1,40.6,30.15,SW,227,0.0,0.0,56,0.00,,,0.00,meteohub,2013-01-21 01:13:00,
2013-01-20 19:18:00,55.9,40.5,30.15,SW,227,0.0,0.0,56,0.00,,,0.00,meteohub,2013-01-21 01:18:00,
2013-01-20 19:23:00,55.8,40.3,30.15,SW,227,0.0,0.0,56,0.00,,,0.00,meteohub,2013-01-21 01:23:00,
2013-01-20 19:28:00,55.6,40.6,30.16,SW,227,0.0,0.0,57,0.00,,,0.00,meteohub,2013-01-21 01:28:00,
2013-01-20 19:33:00,55.4,40.5,30.16,SW,227,0.0,0.0,57,0.00,,,0.00,meteohub,2013-01-21 01:33:00,
2013-01-20 19:38:00,55.2,40.6,30.16,SW,227,0.0,0.0,58,0.00,,,0.00,meteohub,2013-01-21 01:38:00,
2013-01-20 19:43:00,55.0,40.5,30.16,SW,227,0.0,0.0,58,0.00,,,0.00,meteohub,2013-01-21 01:43:00,
2013-01-20 19:48:00,54.9,41.7,30.16,SW,227,0.0,0.0,61,0.00,,,0.00,meteohub,2013-01-21 01:48:00,
2013-01-20 19:53:00,54.3,41.2,30.16,SW,227,0.0,0.0,61,0.00,,,0.00,meteohub,2013-01-21 01:53:00,
2013-01-20 19:59:00,54.0,40.8,30.16,SW,227,0.0,0.0,61,0.00,,,0.00,meteohub,2013-01-21 01:59:00,
2013-01-20 20:04:00,53.2,42.3,30.17,SW,227,0.0,0.0,66,0.00,,,0.00,meteohub,2013-01-21 02:04:00,
2013-01-20 20:09:00,52.0,42.1,30.17,SW,227,0.0,0.0,69,0.00,,,0.00,meteohub,2013-01-21 02:09:00,
2013-01-20 20:14:00,50.7,41.7,30.17,SW,227,1.0,0.0,71,0.00,,,0.00,meteohub,2013-01-21 02:14:00,
2013-01-20 20:19:00,50.0,42.1,30.16,SW,227,1.0,2.0,74,0.00,,,0.00,meteohub,2013-01-21 02:19:00,
2013-01-20 20:24:00,49.5,42.6,30.17,SW,227,0.0,2.0,77,0.00,,,0.00,meteohub,2013-01-21 02:24:00,
2013-01-20 20:29:00,48.9,42.1,30.17,SW,227,0.0,2.0,77,0.00,,,0.00,meteohub,2013-01-21 02:29:00,
2013-01-20 20:34:00,48.9,42.4,30.17,SW,227,0.0,2.0,78,0.00,,,0.00,meteohub,2013-01-21 02:34:00,
2013-01-20 20:39:00,48.9,41.4,30.17,SW,227,0.0,1.0,75,0.00,,,0.00,meteohub,2013-01-21 02:39:00,
2013-01-20 20:44:00,48.9,41.7,30.17,SW,227,0.0,1.0,76,0.00,,,0.00,meteohub,2013-01-21 02:44:00,
2013-01-20 20:49:00,48.9,41.7,30.17,SW,227,0.0,1.0,76,0.00,,,0.00,meteohub,2013-01-21 02:49:00,
2013-01-20 20:54:00,49.1,41.5,30.17,SW,227,0.0,1.0,75,0.00,,,0.00,meteohub,2013-01-21 02:54:00,
2013-01-20 20:59:00,49.1,41.5,30.17,SW,227,0.0,0.0,75,0.00,,,0.00,meteohub,2013-01-21 02:59:00,
2013-01-20 21:04:00,48.9,41.4,30.17,SW,227,0.0,0.0,75,0.00,,,0.00,meteohub,2013-01-21 03:04:00,
2013-01-20 21:09:00,48.9,41.0,30.17,SW,227,0.0,0.0,74,0.00,,,0.00,meteohub,2013-01-21 03:09:00,
2013-01-20 21:14:00,48.7,40.8,30.17,SW,227,0.0,0.0,74,0.00,,,0.00,meteohub,2013-01-21 03:14:00,
2013-01-20 21:19:00,48.6,40.6,30.17,SW,227,0.0,0.0,74,0.00,,,0.00,meteohub,2013-01-21 03:19:00,
2013-01-20 21:24:00,48.7,41.9,30.17,SW,227,0.0,0.0,77,0.00,,,0.00,meteohub,2013-01-21 03:24:00,
2013-01-20 21:29:00,48.7,42.3,30.17,SW,227,0.0,0.0,78,0.00,,,0.00,meteohub,2013-01-21 03:29:00,
2013-01-20 21:34:00,48.7,42.3,30.17,SW,227,0.0,0.0,78,0.00,,,0.00,meteohub,2013-01-21 03:34:00,
2013-01-20 21:39:00,48.7,41.9,30.17,SW,227,0.0,0.0,77,0.00,,,0.00,meteohub,2013-01-21 03:39:00,
2013-01-20 21:44:00,48.6,41.7,30.17,SW,227,0.0,0.0,77,0.00,,,0.00,meteohub,2013-01-21 03:44:00,
2013-01-20 21:49:00,48.6,42.1,30.17,SW,227,0.0,1.0,78,0.00,,,0.00,meteohub,2013-01-21 03:49:00,
2013-01-20 21:54:00,48.6,42.1,30.17,SW,227,0.0,1.0,78,0.00,,,0.00,meteohub,2013-01-21 03:54:00,
2013-01-20 21:59:00,48.6,42.6,30.18,SW,227,0.0,1.0,80,0.00,,,0.00,meteohub,2013-01-21 03:59:00,
2013-01-20 22:04:00,48.6,43.7,30.18,SW,227,0.0,1.0,83,0.00,,,0.00,meteohub,2013-01-21 04:04:00,
2013-01-20 22:09:00,48.6,43.7,30.18,SW,227,0.0,1.0,83,0.00,,,0.00,meteohub,2013-01-21 04:09:00,
2013-01-20 22:14:00,48.6,43.9,30.18,SW,227,0.0,1.0,84,0.00,,,0.00,meteohub,2013-01-21 04:14:00,
2013-01-20 22:19:00,48.6,43.9,30.18,SW,227,0.0,0.0,84,0.00,,,0.00,meteohub,2013-01-21 04:19:00,
2013-01-20 22:24:00,48.4,43.7,30.17,SW,227,0.0,0.0,84,0.00,,,0.00,meteohub,2013-01-21 04:24:00,
2013-01-20 22:29:00,48.4,43.7,30.17,SW,227,0.0,0.0,84,0.00,,,0.00,meteohub,2013-01-21 04:29:00,
2013-01-20 22:34:00,48.2,43.5,30.17,SW,227,0.0,0.0,84,0.00,,,0.00,meteohub,2013-01-21 04:34:00,
2013-01-20 22:39:00,48.0,43.3,30.17,SW,227,0.0,0.0,84,0.00,,,0.00,meteohub,2013-01-21 04:39:00,
2013-01-20 22:44:00,48.0,43.2,30.17,SW,227,0.0,0.0,83,0.00,,,0.00,meteohub,2013-01-21 04:44:00,
2013-01-20 22:49:00,48.0,43.2,30.17,SW,227,0.0,0.0,83,0.00,,,0.00,meteohub,2013-01-21 04:49:00,
2013-01-20 22:54:00,48.0,43.2,30.17,SW,227,0.0,0.0,83,0.00,,,0.00,meteohub,2013-01-21 04:54:00,
2013-01-20 22:59:00,48.4,43.5,30.17,SW,227,0.0,0.0,83,0.00,,,0.00,meteohub,2013-01-21 04:59:00,
2013-01-20 23:00:00,48.4,43.5,30.17,SW,227,0.0,0.0,83,0.00,,,0.00,meteohub,2013-01-21 05:00:00,
2013-01-20 23:01:00,48.4,43.5,30.17,SW,227,0.0,0.0,83,0.00,,,0.00,meteohub,2013-01-21 05:01:00,
2013-01-20 23:02:00,48.4,43.5,30.17,SW,227,0.0,0.0,83,0.00,,,0.00,meteohub,2013-01-21 05:02:00,
2013-01-20 23:03:00,48.4,43.5,30.17,SW,227,0.0,0.0,83,0.00,,,0.00,meteohub,2013-01-21 05:03:00,
2013-01-20 23:08:00,48.4,43.2,30.17,SW,227,0.0,0.0,82,0.00,,,0.00,meteohub,2013-01-21 05:08:00,
2013-01-20 23:13:00,48.0,42.8,30.16,SW,227,0.0,0.0,82,0.00,,,0.00,meteohub,2013-01-21 05:13:00,
2013-01-20 23:18:00,47.8,42.6,30.16,SW,227,0.0,0.0,82,0.00,,,0.00,meteohub,2013-01-21 05:18:00,
2013-01-20 23:23:00,47.1,42.3,30.16,SW,227,0.0,0.0,83,0.00,,,0.00,meteohub,2013-01-21 05:23:00,
2013-01-20 23:28:00,46.8,42.3,30.16,SW,227,0.0,0.0,84,0.00,,,0.00,meteohub,2013-01-21 05:28:00,
2013-01-20 23:33:00,46.4,42.1,30.16,SW,227,0.0,0.0,85,0.00,,,0.00,meteohub,2013-01-21 05:33:00,
2013-01-20 23:38:00,46.2,41.9,30.16,SW,227,0.0,0.0,85,0.00,,,0.00,meteohub,2013-01-21 05:38:00,
2013-01-20 23:43:00,45.9,41.9,30.15,SW,227,0.0,0.0,86,0.00,,,0.00,meteohub,2013-01-21 05:43:00,
2013-01-20 23:49:00,45.7,41.7,30.15,SW,227,0.0,0.0,86,0.00,,,0.00,meteohub,2013-01-21 05:49:00,
2013-01-20 23:54:00,45.9,41.9,30.14,SW,227,0.0,0.0,86,0.00,,,0.00,meteohub,2013-01-21 05:54:00,
2013-01-20 23:59:00,45.9,41.9,30.14,SW,227,1.0,0.0,86,0.00,,,0.00,meteohub,2013-01-21 05:59:00,